Time;durP1;ratioP1;P1;durP2;ratioP2;P2;SDS_P1;SDS_P2;PMS_P1;PMS_P2;Temp;Humidity;BMP_temperature;BMP_pressure;BME280_temperature;BME280_humidity;BME280_pressure;Samples;Min_cycle;Max_cycle;Signal;HPM_P1;HPM_P2
2020/12/04 00:00:48;;;;;;;4.85;4.35;;;2.90;99.90;;;;;;474270;250;29134;-74
2020/12/04 00:02:49;;;;;;;6.30;4.53;;;2.90;99.90;;;;;;474317;250;27550;-74
2020/12/04 00:04:50;;;;;;;5.25;4.75;;;2.90;99.90;;;;;;474335;250;27478;-75
2020/12/04 00:06:52;;;;;;;5.90;4.25;;;2.90;99.90;;;;;;474310;250;27587;-74
2020/12/04 00:08:53;;;;;;;4.75;4.20;;;2.90;99.90;;;;;;474364;250;27558;-74
2020/12/04 00:10:54;;;;;;;5.25;4.65;;;2.90;99.90;;;;;;474271;250;27530;-75
2020/12/04 00:12:55;;;;;;;6.47;5.03;;;2.90;99.90;;;;;;474346;250;27485;-74
2020/12/04 00:14:57;;;;;;;5.50;4.78;;;2.90;99.90;;;;;;474373;250;27498;-74
2020/12/04 00:16:58;;;;;;;6.78;4.80;;;3.00;99.90;;;;;;474323;249;27462;-74
2020/12/04 00:18:59;;;;;;;5.47;4.37;;;3.00;99.90;;;;;;474342;250;27482;-74
2020/12/04 00:21:00;;;;;;;4.43;4.03;;;3.00;99.90;;;;;;474266;250;27506;-74
2020/12/04 00:23:02;;;;;;;5.62;4.57;;;3.00;99.90;;;;;;474304;250;27856;-74
2020/12/04 00:25:03;;;;;;;6.50;4.65;;;3.00;99.90;;;;;;474326;250;27949;-75
2020/12/04 00:27:04;;;;;;;6.25;5.03;;;3.00;99.90;;;;;;474293;250;28121;-76
2020/12/04 00:29:05;;;;;;;6.50;5.47;;;3.00;99.90;;;;;;474305;250;28092;-75
2020/12/04 00:31:07;;;;;;;4.93;4.25;;;3.00;99.90;;;;;;474296;249;27491;-74
2020/12/04 00:33:08;;;;;;;5.78;4.55;;;3.00;99.90;;;;;;474347;250;27418;-74
2020/12/04 00:35:09;;;;;;;5.07;4.57;;;3.10;99.90;;;;;;474317;250;27459;-74
2020/12/04 00:37:10;;;;;;;6.30;4.97;;;3.00;99.90;;;;;;474297;250;27458;-74
2020/12/04 00:39:12;;;;;;;5.10;4.20;;;3.00;99.90;;;;;;474315;250;27586;-74
2020/12/04 00:41:13;;;;;;;5.93;4.87;;;3.00;99.90;;;;;;474283;250;27502;-74
2020/12/04 00:43:14;;;;;;;4.40;4.00;;;3.00;99.90;;;;;;474374;250;27550;-74
2020/12/04 00:45:15;;;;;;;6.40;4.75;;;3.10;99.90;;;;;;474377;250;27522;-74
2020/12/04 00:47:17;;;;;;;4.72;4.20;;;3.20;99.90;;;;;;474354;249;27474;-74
2020/12/04 00:49:18;;;;;;;6.12;4.80;;;3.20;99.90;;;;;;474445;250;27435;-74
2020/12/04 00:51:19;;;;;;;6.70;4.70;;;3.30;99.90;;;;;;474261;249;27999;-74
2020/12/04 00:53:20;;;;;;;4.53;4.10;;;3.30;99.90;;;;;;474491;250;28063;-74
2020/12/04 00:55:22;;;;;;;5.10;4.60;;;3.30;99.90;;;;;;474508;250;27938;-74
2020/12/04 00:57:23;;;;;;;4.47;3.95;;;3.30;99.90;;;;;;474425;250;29200;-75
2020/12/04 00:59:24;;;;;;;6.20;4.15;;;3.30;99.90;;;;;;474389;250;27546;-74
2020/12/04 01:01:25;;;;;;;4.78;4.28;;;3.30;99.90;;;;;;474379;250;27459;-76
2020/12/04 01:03:27;;;;;;;5.00;4.25;;;3.40;99.90;;;;;;474365;249;27454;-74
2020/12/04 01:05:28;;;;;;;4.78;3.90;;;3.40;99.90;;;;;;474341;250;27585;-75
2020/12/04 01:07:29;;;;;;;5.50;3.78;;;3.40;99.90;;;;;;474306;250;27466;-74
2020/12/04 01:09:30;;;;;;;4.87;4.32;;;3.40;99.90;;;;;;474318;250;27541;-74
2020/12/04 01:11:32;;;;;;;5.30;3.97;;;3.40;99.90;;;;;;474299;250;27463;-74
2020/12/04 01:13:33;;;;;;;5.45;4.60;;;3.50;99.90;;;;;;474378;250;27510;-74
2020/12/04 01:15:34;;;;;;;4.57;4.12;;;3.50;99.90;;;;;;474355;250;27489;-74
2020/12/04 01:17:35;;;;;;;6.75;4.20;;;3.50;99.90;;;;;;474366;250;27543;-76
2020/12/04 01:19:37;;;;;;;4.93;4.22;;;3.50;99.90;;;;;;474314;250;28010;-75
2020/12/04 01:21:38;;;;;;;4.30;3.90;;;3.50;99.90;;;;;;474280;250;28029;-74
2020/12/04 01:23:39;;;;;;;4.82;4.00;;;3.50;99.90;;;;;;474319;250;28771;-74
2020/12/04 01:25:40;;;;;;;5.37;4.70;;;3.60;99.90;;;;;;474339;246;27964;-74
2020/12/04 01:27:42;;;;;;;4.35;3.95;;;3.60;99.90;;;;;;474305;250;27567;-75
2020/12/04 01:29:44;;;;;;;5.25;4.43;;;3.60;99.90;;;;;;474332;250;27467;-74
2020/12/04 01:31:44;;;;;;;4.45;3.90;;;3.60;99.90;;;;;;474237;250;27680;-74
2020/12/04 01:33:45;;;;;;;6.37;4.10;;;3.60;99.90;;;;;;474316;250;27541;-74
2020/12/04 01:35:47;;;;;;;4.47;3.95;;;3.60;99.90;;;;;;474342;250;27539;-75
2020/12/04 01:37:48;;;;;;;4.55;4.15;;;3.60;99.90;;;;;;474318;250;27482;-74
2020/12/04 01:39:49;;;;;;;4.68;4.22;;;3.60;99.90;;;;;;474306;250;27594;-74
2020/12/04 01:41:50;;;;;;;5.22;4.72;;;3.70;99.90;;;;;;474236;250;27498;-74
2020/12/04 01:43:52;;;;;;;5.35;4.80;;;3.70;99.90;;;;;;474332;250;27546;-74
2020/12/04 01:45:53;;;;;;;5.53;4.40;;;3.70;99.90;;;;;;474360;250;27501;-76
2020/12/04 01:47:54;;;;;;;5.70;4.85;;;3.60;99.90;;;;;;474277;250;27951;-75
2020/12/04 01:49:56;;;;;;;4.50;4.10;;;3.70;99.90;;;;;;474263;250;27958;-74
2020/12/04 01:51:57;;;;;;;4.25;3.85;;;3.70;99.90;;;;;;474280;250;28994;-74
2020/12/04 01:53:58;;;;;;;5.40;4.90;;;3.70;99.90;;;;;;474319;250;27956;-74
2020/12/04 01:55:59;;;;;;;4.82;4.00;;;3.70;99.90;;;;;;474376;250;27515;-74
2020/12/04 01:58:01;;;;;;;5.55;4.68;;;3.70;99.90;;;;;;474470;250;27567;-74
2020/12/04 02:00:02;;;;;;;6.32;4.60;;;3.70;99.90;;;;;;474488;250;27462;-76
2020/12/04 02:02:03;;;;;;;4.93;4.45;;;3.70;99.90;;;;;;474533;250;27445;-74
2020/12/04 02:04:04;;;;;;;4.90;4.18;;;3.70;99.90;;;;;;474573;250;27563;-75
2020/12/04 02:06:06;;;;;;;5.82;4.43;;;3.70;99.90;;;;;;474561;250;27443;-74
2020/12/04 02:08:07;;;;;;;4.70;4.20;;;3.80;99.90;;;;;;474541;250;27482;-74
2020/12/04 02:10:08;;;;;;;5.18;4.30;;;3.80;99.90;;;;;;474440;250;27474;-76
2020/12/04 02:12:15;;;;;;;4.80;4.25;;;3.80;99.90;;;;;;474415;250;27523;-74
2020/12/04 02:14:11;;;;;;;5.80;4.47;;;3.70;99.90;;;;;;474091;250;27507;-75
2020/12/04 02:16:12;;;;;;;5.40;4.53;;;3.70;99.90;;;;;;474346;250;27957;-74
2020/12/04 02:18:13;;;;;;;4.72;4.07;;;3.70;99.90;;;;;;474354;250;28057;-75
2020/12/04 02:20:14;;;;;;;4.95;4.40;;;3.80;99.90;;;;;;474274;250;29374;-75
2020/12/04 02:22:16;;;;;;;5.00;4.50;;;3.80;99.90;;;;;;474366;250;27909;-74
2020/12/04 02:24:17;;;;;;;6.10;5.10;;;3.80;99.90;;;;;;474341;250;27467;-74
2020/12/04 02:26:18;;;;;;;3.97;3.67;;;3.80;99.90;;;;;;474330;250;27526;-74
2020/12/04 02:28:19;;;;;;;5.53;4.80;;;3.80;99.90;;;;;;474391;243;27582;-74
2020/12/04 02:30:21;;;;;;;4.85;4.35;;;3.90;99.90;;;;;;474288;249;27471;-74
2020/12/04 02:32:22;;;;;;;4.60;3.92;;;3.90;99.90;;;;;;474323;250;27443;-74
2020/12/04 02:34:23;;;;;;;7.00;5.28;;;3.90;99.90;;;;;;474290;250;27594;-75
2020/12/04 02:36:24;;;;;;;5.75;4.60;;;3.90;99.90;;;;;;474268;250;27589;-75
2020/12/04 02:38:26;;;;;;;6.25;5.15;;;3.90;99.90;;;;;;474301;250;27479;-74
2020/12/04 02:40:27;;;;;;;5.15;4.65;;;3.90;99.90;;;;;;474264;250;27474;-74
2020/12/04 02:42:28;;;;;;;4.78;4.15;;;3.90;99.90;;;;;;474318;250;27435;-74
2020/12/04 02:44:29;;;;;;;5.12;4.62;;;3.90;99.90;;;;;;474301;250;27939;-75
2020/12/04 02:46:31;;;;;;;5.30;4.80;;;3.90;99.90;;;;;;474214;249;27962;-73
2020/12/04 02:48:32;;;;;;;6.45;5.07;;;3.90;99.90;;;;;;474149;250;28067;-74
2020/12/04 02:50:33;;;;;;;5.68;5.05;;;3.80;99.90;;;;;;474091;250;28075;-75
2020/12/04 02:52:34;;;;;;;6.80;4.80;;;3.80;99.90;;;;;;474136;250;27597;-74
2020/12/04 02:54:36;;;;;;;8.30;4.50;;;3.80;99.90;;;;;;474247;250;27567;-74
2020/12/04 02:56:37;;;;;;;5.75;4.95;;;3.90;99.90;;;;;;474212;250;27486;-75
2020/12/04 02:58:38;;;;;;;5.30;4.35;;;3.80;99.90;;;;;;474236;250;27471;-74
2020/12/04 03:00:39;;;;;;;7.72;5.53;;;3.80;99.90;;;;;;474189;250;27543;-74
2020/12/04 03:02:41;;;;;;;6.57;5.30;;;3.80;99.90;;;;;;474282;250;27525;-75
2020/12/04 03:04:43;;;;;;;7.72;5.22;;;3.80;99.90;;;;;;474296;250;27565;-75
2020/12/04 03:06:43;;;;;;;6.95;5.25;;;3.80;99.90;;;;;;474229;250;27515;-74
2020/12/04 03:08:44;;;;;;;5.82;4.57;;;3.80;99.90;;;;;;474240;250;27470;-75
2020/12/04 03:10:46;;;;;;;6.00;4.80;;;3.80;99.90;;;;;;474235;250;27475;-74
2020/12/04 03:12:47;;;;;;;5.07;4.57;;;3.80;99.90;;;;;;474346;250;27966;-74
2020/12/04 03:14:48;;;;;;;6.32;5.18;;;3.70;99.90;;;;;;474337;250;28657;-74
2020/12/04 03:16:49;;;;;;;5.80;5.03;;;3.70;99.90;;;;;;474325;250;27963;-74
2020/12/04 03:18:51;;;;;;;6.20;4.95;;;3.70;99.90;;;;;;474346;249;27887;-74
2020/12/04 03:20:52;;;;;;;5.60;4.70;;;3.80;99.90;;;;;;474307;250;27416;-75
2020/12/04 03:22:53;;;;;;;7.30;5.00;;;3.80;99.90;;;;;;474351;250;27455;-74
2020/12/04 03:24:54;;;;;;;5.50;4.55;;;3.80;99.90;;;;;;474302;250;27633;-74
2020/12/04 03:26:56;;;;;;;7.35;5.25;;;3.80;99.90;;;;;;474310;250;27547;-74
2020/12/04 03:28:57;;;;;;;6.15;5.07;;;3.80;99.90;;;;;;474429;250;27499;-75
2020/12/04 03:30:59;;;;;;;7.18;4.82;;;3.80;99.90;;;;;;474406;250;27412;-75
2020/12/04 03:33:00;;;;;;;5.57;4.60;;;3.90;99.90;;;;;;474449;250;27497;-74
2020/12/04 03:35:01;;;;;;;8.20;5.07;;;3.80;99.90;;;;;;474524;250;27451;-74
2020/12/04 03:37:02;;;;;;;5.43;4.45;;;3.90;99.90;;;;;;474551;250;27434;-74
2020/12/04 03:39:03;;;;;;;4.85;4.05;;;3.90;99.90;;;;;;474575;250;27505;-75
2020/12/04 03:41:04;;;;;;;5.62;4.43;;;3.90;99.90;;;;;;474514;250;27891;-73
2020/12/04 03:43:06;;;;;;;4.87;4.40;;;3.90;99.90;;;;;;474548;250;28029;-74
2020/12/04 03:45:07;;;;;;;5.15;4.50;;;3.90;99.90;;;;;;474558;250;28787;-74
2020/12/04 03:47:08;;;;;;;5.18;4.68;;;3.90;99.90;;;;;;474487;250;27436;-74
2020/12/04 03:49:09;;;;;;;4.80;4.10;;;3.90;99.90;;;;;;474355;250;27520;-75
2020/12/04 03:51:11;;;;;;;5.10;4.47;;;4.00;99.90;;;;;;474298;250;27501;-75
2020/12/04 03:53:12;;;;;;;6.85;4.40;;;4.00;99.90;;;;;;474336;250;27490;-75
2020/12/04 03:55:13;;;;;;;5.85;4.57;;;4.00;99.90;;;;;;474330;250;27558;-74
2020/12/04 03:57:14;;;;;;;6.62;4.97;;;4.00;99.90;;;;;;474318;250;27520;-74
2020/12/04 03:59:16;;;;;;;6.28;4.70;;;4.00;99.90;;;;;;474355;250;27832;-74
2020/12/04 04:01:17;;;;;;;8.52;5.85;;;4.00;99.90;;;;;;474348;250;27523;-74
2020/12/04 04:03:18;;;;;;;6.95;5.12;;;4.10;99.90;;;;;;474338;250;27530;-74
2020/12/04 04:05:19;;;;;;;6.60;4.95;;;4.10;99.90;;;;;;474364;250;27467;-74
2020/12/04 04:07:21;;;;;;;6.87;5.60;;;4.10;99.90;;;;;;474317;250;28155;-74
2020/12/04 04:09:22;;;;;;;6.10;5.05;;;4.10;99.90;;;;;;474310;250;28048;-75
2020/12/04 04:11:23;;;;;;;6.10;4.80;;;4.10;99.90;;;;;;474223;250;28912;-74
2020/12/04 04:13:24;;;;;;;5.80;4.85;;;4.10;99.90;;;;;;474382;250;29054;-75
2020/12/04 04:15:26;;;;;;;6.05;4.20;;;4.20;99.90;;;;;;474340;250;27573;-74
2020/12/04 04:17:27;;;;;;;5.95;4.53;;;4.20;99.90;;;;;;474292;250;27457;-74
2020/12/04 04:19:28;;;;;;;6.40;4.85;;;4.20;99.90;;;;;;474292;249;27485;-74
2020/12/04 04:21:29;;;;;;;6.82;5.78;;;4.20;99.90;;;;;;474304;250;27550;-75
2020/12/04 04:23:31;;;;;;;9.25;4.80;;;4.20;99.90;;;;;;473916;250;27535;-75
2020/12/04 04:25:32;;;;;;;4.87;4.28;;;4.20;99.90;;;;;;474372;250;27487;-75
2020/12/04 04:27:33;;;;;;;4.80;4.30;;;4.30;99.90;;;;;;474403;250;27486;-75
2020/12/04 04:29:34;;;;;;;5.65;4.65;;;4.30;99.90;;;;;;474377;250;27545;-74
2020/12/04 04:31:36;;;;;;;6.53;4.47;;;4.30;99.90;;;;;;474374;250;27566;-76
2020/12/04 04:33:37;;;;;;;4.47;4.00;;;4.30;99.90;;;;;;474390;250;27478;-75
2020/12/04 04:35:38;;;;;;;4.10;3.67;;;4.30;99.90;;;;;;474313;250;28048;-74
2020/12/04 04:37:39;;;;;;;4.03;3.62;;;4.30;99.90;;;;;;474282;250;28050;-74
2020/12/04 04:39:43;;;;;;;4.37;3.85;;;4.40;99.90;;;;;;474305;250;28057;-74
2020/12/04 04:41:42;;;;;;;4.62;4.07;;;4.40;99.90;;;;;;474172;249;27970;-75
2020/12/04 04:43:43;;;;;;;4.80;4.00;;;4.40;99.90;;;;;;474336;250;27479;-75
2020/12/04 04:45:44;;;;;;;4.85;3.97;;;4.50;99.90;;;;;;474322;250;27542;-74
2020/12/04 04:47:46;;;;;;;5.20;4.10;;;4.50;99.90;;;;;;474335;250;27467;-75
2020/12/04 04:49:47;;;;;;;4.78;4.20;;;4.50;99.90;;;;;;474419;250;27527;-74
2020/12/04 04:51:48;;;;;;;6.50;4.30;;;4.40;99.90;;;;;;474467;250;27485;-75
2020/12/04 04:53:49;;;;;;;5.87;4.40;;;4.40;99.90;;;;;;474505;250;27431;-74
2020/12/04 04:55:55;;;;;;;5.70;4.28;;;4.50;99.90;;;;;;474482;250;27543;-74
2020/12/04 04:57:52;;;;;;;6.10;4.18;;;4.50;99.90;;;;;;474315;250;27590;-76
2020/12/04 04:59:54;;;;;;;4.03;3.62;;;4.50;99.90;;;;;;474473;249;27467;-74
2020/12/04 05:01:54;;;;;;;5.47;4.50;;;4.50;99.90;;;;;;474257;250;28042;-74
2020/12/04 05:03:56;;;;;;;7.12;4.30;;;4.50;99.90;;;;;;474347;250;28778;-74
2020/12/04 05:05:57;;;;;;;4.82;4.00;;;4.50;99.90;;;;;;474374;250;27948;-74
2020/12/04 05:07:58;;;;;;;4.68;3.58;;;4.60;99.90;;;;;;474373;249;28009;-75
2020/12/04 05:09:59;;;;;;;6.10;4.37;;;4.50;99.90;;;;;;474365;250;27507;-74
2020/12/04 05:12:01;;;;;;;5.72;3.25;;;4.50;99.90;;;;;;474321;250;27581;-74
2020/12/04 05:14:02;;;;;;;4.57;3.80;;;4.50;99.90;;;;;;474368;250;27561;-75
2020/12/04 05:16:03;;;;;;;5.55;4.00;;;4.50;99.90;;;;;;474327;250;27490;-74
2020/12/04 05:18:05;;;;;;;4.55;3.75;;;4.50;99.90;;;;;;474363;250;27471;-74
2020/12/04 05:20:06;;;;;;;4.25;3.85;;;4.50;99.90;;;;;;474301;250;27519;-74
2020/12/04 05:22:07;;;;;;;5.12;3.47;;;4.50;99.90;;;;;;474345;250;27520;-74
2020/12/04 05:24:08;;;;;;;3.40;3.10;;;4.50;99.90;;;;;;474318;250;27471;-75
2020/12/04 05:26:09;;;;;;;4.70;3.60;;;4.50;99.90;;;;;;474323;250;27467;-75
2020/12/04 05:28:11;;;;;;;3.80;3.45;;;4.60;99.90;;;;;;474310;250;28010;-75
2020/12/04 05:30:12;;;;;;;4.87;3.78;;;4.60;99.90;;;;;;474284;250;28831;-75
2020/12/04 05:32:13;;;;;;;4.30;3.30;;;4.50;99.90;;;;;;474322;250;28105;-74
2020/12/04 05:34:14;;;;;;;4.68;3.80;;;4.50;99.90;;;;;;474344;250;27975;-75
2020/12/04 05:36:16;;;;;;;4.18;3.35;;;4.50;99.90;;;;;;474298;249;27577;-74
2020/12/04 05:38:17;;;;;;;3.55;3.22;;;4.50;99.90;;;;;;474324;250;27474;-74
2020/12/04 05:40:18;;;;;;;4.93;3.95;;;4.50;99.90;;;;;;474317;250;27515;-75
2020/12/04 05:42:19;;;;;;;3.72;3.35;;;4.50;99.90;;;;;;474420;250;27563;-75
2020/12/04 05:44:21;;;;;;;3.80;3.40;;;4.50;99.90;;;;;;474414;250;27485;-74
2020/12/04 05:46:25;;;;;;;4.37;3.70;;;4.50;99.90;;;;;;474385;250;27518;-74
2020/12/04 05:48:23;;;;;;;3.75;3.45;;;4.40;99.90;;;;;;474173;250;27627;-74
2020/12/04 05:50:24;;;;;;;5.40;3.80;;;4.50;99.90;;;;;;474337;250;27479;-74
2020/12/04 05:52:26;;;;;;;6.00;3.90;;;4.50;99.90;;;;;;474338;250;28075;-76
2020/12/04 05:54:27;;;;;;;4.93;3.78;;;4.40;99.90;;;;;;474341;250;28045;-75
2020/12/04 05:56:28;;;;;;;3.92;3.55;;;4.50;99.90;;;;;;474335;250;29011;-74
2020/12/04 05:58:29;;;;;;;4.40;3.40;;;4.50;99.90;;;;;;474344;250;27976;-74
2020/12/04 06:00:31;;;;;;;4.30;3.42;;;4.50;99.90;;;;;;474302;250;27480;-75
2020/12/04 06:02:32;;;;;;;4.50;3.50;;;4.40;99.90;;;;;;474341;250;27530;-74
2020/12/04 06:04:33;;;;;;;5.03;3.70;;;4.50;99.90;;;;;;474330;250;27538;-74
2020/12/04 06:06:34;;;;;;;3.90;3.50;;;4.50;99.90;;;;;;474365;250;27714;-75
2020/12/04 06:08:36;;;;;;;4.53;3.45;;;4.50;99.90;;;;;;474353;250;27521;-74
2020/12/04 06:10:37;;;;;;;5.10;3.92;;;4.50;99.90;;;;;;474326;250;27569;-74
2020/12/04 06:12:38;;;;;;;5.03;4.25;;;4.50;99.90;;;;;;474368;250;27466;-75
2020/12/04 06:14:39;;;;;;;5.18;4.22;;;4.50;99.90;;;;;;474433;250;27481;-74
2020/12/04 06:16:41;;;;;;;4.95;4.00;;;4.50;99.90;;;;;;474563;250;28021;-74
2020/12/04 06:18:42;;;;;;;5.70;4.10;;;4.50;99.90;;;;;;474538;250;27903;-75
2020/12/04 06:20:43;;;;;;;4.95;3.90;;;4.50;99.90;;;;;;474494;250;28073;-75
2020/12/04 06:22:44;;;;;;;4.30;3.90;;;4.50;99.90;;;;;;474466;250;27852;-74
2020/12/04 06:24:46;;;;;;;5.20;3.60;;;4.50;99.90;;;;;;474496;250;27507;-75
2020/12/04 06:26:47;;;;;;;3.92;3.53;;;4.40;99.90;;;;;;474555;250;27602;-76
2020/12/04 06:28:48;;;;;;;4.95;3.72;;;4.40;99.90;;;;;;474469;250;27415;-74
2020/12/04 06:30:49;;;;;;;4.40;3.95;;;4.50;99.90;;;;;;474344;250;27534;-75
2020/12/04 06:32:51;;;;;;;4.20;3.80;;;4.50;99.90;;;;;;474333;250;27934;-74
2020/12/04 06:34:52;;;;;;;4.35;3.95;;;4.50;99.90;;;;;;474303;250;27487;-74
2020/12/04 06:36:53;;;;;;;4.30;3.90;;;4.50;99.90;;;;;;474319;250;27880;-74
2020/12/04 06:38:54;;;;;;;4.53;4.10;;;4.50;99.90;;;;;;474303;250;27614;-74
2020/12/04 06:40:56;;;;;;;4.50;3.40;;;4.50;99.90;;;;;;474257;250;27649;-73
2020/12/04 06:42:57;;;;;;;4.22;3.90;;;4.50;99.90;;;;;;474311;250;28092;-74
2020/12/04 06:44:58;;;;;;;4.40;4.00;;;4.50;99.90;;;;;;474284;250;27991;-74
2020/12/04 06:47:00;;;;;;;5.62;4.10;;;4.50;99.90;;;;;;474321;250;29117;-74
2020/12/04 06:49:01;;;;;;;4.68;3.75;;;4.50;99.90;;;;;;474313;249;27463;-74
2020/12/04 06:51:02;;;;;;;5.12;4.43;;;4.50;99.90;;;;;;474227;250;27483;-75
2020/12/04 06:53:05;;;;;;;4.97;3.67;;;4.60;99.90;;;;;;474320;250;27549;-74
2020/12/04 06:55:04;;;;;;;4.22;3.75;;;4.60;99.90;;;;;;474218;249;27490;-74
2020/12/04 06:57:06;;;;;;;3.87;3.37;;;4.50;99.90;;;;;;474283;250;27582;-75
2020/12/04 06:59:07;;;;;;;4.10;3.70;;;4.50;99.90;;;;;;474286;250;27463;-74
2020/12/04 07:01:08;;;;;;;8.57;4.20;;;4.50;99.90;;;;;;474244;250;27495;-74
2020/12/04 07:03:09;;;;;;;6.12;4.22;;;4.50;99.90;;;;;;474305;249;27558;-74
2020/12/04 07:05:11;;;;;;;3.28;2.97;;;4.50;99.90;;;;;;474301;250;27554;-74
2020/12/04 07:07:12;;;;;;;3.95;3.50;;;4.50;99.90;;;;;;474348;249;28841;-74
2020/12/04 07:09:13;;;;;;;20.00;3.90;;;4.50;99.90;;;;;;474343;250;28187;-77
2020/12/04 07:11:14;;;;;;;4.90;4.28;;;4.60;99.90;;;;;;481220;243;27691;-75
2020/12/04 07:13:16;;;;;;;3.55;3.25;;;4.60;99.90;;;;;;483104;246;27567;-75
2020/12/04 07:15:17;;;;;;;4.12;3.05;;;4.60;99.90;;;;;;483097;246;27645;-75
2020/12/04 07:17:18;;;;;;;3.95;3.53;;;4.60;99.90;;;;;;483143;246;27614;-75
2020/12/04 07:19:19;;;;;;;4.57;3.33;;;4.70;99.90;;;;;;483153;246;27478;-77
2020/12/04 07:21:21;;;;;;;5.05;4.00;;;4.60;99.90;;;;;;483070;246;27470;-75
2020/12/04 07:23:22;;;;;;;4.70;3.90;;;4.70;99.90;;;;;;483146;246;27625;-75
2020/12/04 07:25:23;;;;;;;3.20;2.90;;;4.70;99.90;;;;;;482951;246;27520;-76
2020/12/04 07:27:24;;;;;;;3.28;2.97;;;4.70;99.90;;;;;;483110;246;27507;-75
2020/12/04 07:29:26;;;;;;;3.53;3.03;;;4.70;99.90;;;;;;483101;246;28010;-75
2020/12/04 07:31:27;;;;;;;3.30;2.97;;;4.70;99.90;;;;;;483096;246;28237;-75
2020/12/04 07:33:28;;;;;;;3.60;3.10;;;4.80;99.90;;;;;;483112;246;28128;-76
2020/12/04 07:35:29;;;;;;;3.42;2.95;;;4.70;99.90;;;;;;483132;242;28067;-77
2020/12/04 07:37:31;;;;;;;4.07;3.10;;;4.70;99.90;;;;;;483109;246;27464;-75
2020/12/04 07:39:32;;;;;;;3.30;3.00;;;4.70;99.90;;;;;;483168;246;27535;-75
2020/12/04 07:41:36;;;;;;;3.17;2.87;;;4.70;99.90;;;;;;483126;246;27438;-75
2020/12/04 07:43:34;;;;;;;4.03;3.30;;;4.80;99.90;;;;;;483060;246;27423;-75
2020/12/04 07:45:36;;;;;;;2.70;2.50;;;4.80;99.90;;;;;;483388;246;27456;-76
2020/12/04 07:47:42;;;;;;;3.00;2.80;;;4.80;99.90;;;;;;483289;246;27408;-75
2020/12/04 07:49:38;;;;;;;3.03;2.75;;;4.90;99.90;;;;;;482757;246;27438;-75
2020/12/04 07:51:40;;;;;;;3.67;2.80;;;4.90;99.90;;;;;;483533;246;27504;-74
2020/12/04 07:53:41;;;;;;;3.00;2.80;;;4.90;99.90;;;;;;483128;246;27545;-74
2020/12/04 07:55:42;;;;;;;2.90;2.67;;;4.90;99.90;;;;;;483190;246;27438;-75
2020/12/04 07:57:44;;;;;;;2.60;2.40;;;4.90;99.90;;;;;;483148;246;27555;-74
2020/12/04 07:59:45;;;;;;;3.53;2.95;;;5.00;99.90;;;;;;483133;246;27660;-74
2020/12/04 08:01:46;;;;;;;2.78;2.58;;;5.00;99.90;;;;;;483149;246;27559;-75
2020/12/04 08:03:48;;;;;;;3.17;2.30;;;5.00;99.90;;;;;;483201;246;27416;-75
2020/12/04 08:05:49;;;;;;;2.75;2.55;;;5.10;99.90;;;;;;482995;246;27465;-75
2020/12/04 08:07:50;;;;;;;2.53;2.33;;;5.10;99.90;;;;;;483090;246;28048;-76
2020/12/04 08:09:51;;;;;;;2.67;2.47;;;5.10;99.90;;;;;;483124;246;28033;-75
2020/12/04 08:11:53;;;;;;;2.67;2.47;;;5.10;99.90;;;;;;483074;246;27659;-75
2020/12/04 08:13:54;;;;;;;2.72;2.53;;;5.20;99.90;;;;;;483124;242;27411;-75
2020/12/04 08:15:55;;;;;;;2.60;2.40;;;5.30;99.90;;;;;;483154;246;27471;-77
2020/12/04 08:17:56;;;;;;;2.37;2.17;;;5.30;99.90;;;;;;483171;246;27554;-75
2020/12/04 08:19:59;;;;;;;2.83;2.30;;;5.30;99.90;;;;;;483161;246;27531;-75
2020/12/04 08:21:59;;;;;;;2.47;2.28;;;5.40;99.90;;;;;;483032;246;27883;-75
2020/12/04 08:24:00;;;;;;;2.65;2.45;;;5.40;99.90;;;;;;483167;246;27428;-75
2020/12/04 08:26:01;;;;;;;2.67;2.40;;;5.40;99.90;;;;;;483170;246;28017;-75
2020/12/04 08:28:03;;;;;;;2.42;2.10;;;5.30;99.90;;;;;;483077;246;28121;-74
2020/12/04 08:30:04;;;;;;;2.30;2.10;;;5.30;99.90;;;;;;483067;246;28133;-76
2020/12/04 08:32:05;;;;;;;2.40;2.25;;;5.30;99.90;;;;;;483091;246;27571;-74
2020/12/04 08:34:06;;;;;;;2.05;1.95;;;5.30;99.90;;;;;;483139;246;27440;-76
2020/12/04 08:36:07;;;;;;;2.45;2.25;;;5.30;99.90;;;;;;483145;246;27601;-75
2020/12/04 08:38:09;;;;;;;3.70;2.15;;;5.40;99.90;;;;;;483074;246;27546;-73
2020/12/04 08:40:10;;;;;;;2.45;2.05;;;5.30;99.90;;;;;;483118;246;27578;-74
2020/12/04 08:42:11;;;;;;;2.12;1.92;;;5.30;99.90;;;;;;483207;246;27555;-77
2020/12/04 08:44:12;;;;;;;3.15;2.08;;;5.30;99.90;;;;;;483102;246;27999;-77
2020/12/04 08:46:14;;;;;;;2.78;2.53;;;5.30;99.90;;;;;;483156;246;28724;-77
2020/12/04 08:48:15;;;;;;;3.08;2.40;;;5.30;99.90;;;;;;483131;246;28063;-74
2020/12/04 08:50:16;;;;;;;2.30;2.10;;;5.30;99.90;;;;;;483121;246;27444;-79
2020/12/04 08:52:17;;;;;;;2.22;2.00;;;5.30;99.90;;;;;;483196;246;27503;-75
2020/12/04 08:54:19;;;;;;;3.17;2.87;;;5.40;99.90;;;;;;483123;246;27522;-76
2020/12/04 08:56:24;;;;;;;2.60;2.40;;;5.40;99.90;;;;;;483190;246;27507;-77
2020/12/04 08:58:21;;;;;;;2.58;2.20;;;5.40;99.90;;;;;;482930;246;27562;-78
2020/12/04 09:00:22;;;;;;;2.53;2.30;;;5.40;99.90;;;;;;483255;246;27720;-80
2020/12/04 09:02:24;;;;;;;2.22;1.83;;;5.50;99.90;;;;;;483330;246;27505;-76
2020/12/04 09:04:25;;;;;;;2.03;1.92;;;5.50;99.90;;;;;;483364;246;27899;-77
2020/12/04 09:06:26;;;;;;;2.53;2.15;;;5.50;99.90;;;;;;483318;246;27826;-77
2020/12/04 09:08:27;;;;;;;3.00;1.73;;;5.50;99.90;;;;;;483362;246;27458;-76
2020/12/04 09:10:29;;;;;;;2.10;1.90;;;5.60;99.90;;;;;;483348;246;27571;-78
2020/12/04 09:12:31;;;;;;;2.40;2.20;;;5.60;99.90;;;;;;483261;246;27384;-77
2020/12/04 09:14:31;;;;;;;3.28;2.37;;;5.70;99.90;;;;;;483399;246;27630;-77
2020/12/04 09:16:32;;;;;;;2.55;2.35;;;5.60;99.90;;;;;;483364;246;27559;-79
2020/12/04 09:18:34;;;;;;;3.67;2.58;;;5.70;99.90;;;;;;483393;246;27483;-77
2020/12/04 09:20:35;;;;;;;5.72;4.43;;;5.70;99.90;;;;;;483389;246;27935;-77
2020/12/04 09:22:36;;;;;;;5.05;2.75;;;5.70;99.90;;;;;;483291;246;28048;-77
2020/12/04 09:24:38;;;;;;;3.00;2.80;;;5.80;99.90;;;;;;483255;246;28166;-77
2020/12/04 09:26:39;;;;;;;2.50;2.20;;;5.80;99.90;;;;;;483217;246;27424;-76
2020/12/04 09:28:40;;;;;;;2.37;2.17;;;5.80;99.90;;;;;;483082;246;27645;-77
2020/12/04 09:30:41;;;;;;;2.10;1.95;;;5.80;99.90;;;;;;483144;246;27803;-77
2020/12/04 09:32:43;;;;;;;3.17;2.50;;;5.80;99.90;;;;;;483180;246;27974;-76
2020/12/04 09:34:44;;;;;;;3.17;2.83;;;5.90;99.90;;;;;;483089;246;27551;-76
2020/12/04 09:36:49;;;;;;;2.50;2.12;;;5.90;99.90;;;;;;483094;246;27579;-76
2020/12/04 09:38:46;;;;;;;2.35;2.15;;;5.90;99.90;;;;;;482840;246;27527;-76
2020/12/04 09:40:48;;;;;;;2.25;1.98;;;6.00;99.90;;;;;;483134;246;27886;-77
2020/12/04 09:42:49;;;;;;;3.42;2.10;;;5.90;99.90;;;;;;483174;246;27546;-77
2020/12/04 09:44:50;;;;;;;1.90;1.80;;;5.80;99.90;;;;;;483121;246;28045;-76
2020/12/04 09:46:51;;;;;;;3.62;2.30;;;5.80;99.90;;;;;;483139;246;28021;-76
2020/12/04 09:48:53;;;;;;;2.35;2.15;;;5.80;99.90;;;;;;483124;246;27615;-77
2020/12/04 09:50:54;;;;;;;8.00;4.40;;;6.00;99.90;;;;;;483139;246;27448;-77
2020/12/04 09:52:55;;;;;;;6.03;5.43;;;6.00;99.90;;;;;;483224;246;27451;-78
2020/12/04 09:54:56;;;;;;;3.53;3.22;;;6.00;99.90;;;;;;483178;246;27531;-75
2020/12/04 09:56:58;;;;;;;2.22;2.05;;;6.10;99.90;;;;;;483243;246;27550;-75
2020/12/04 09:58:59;;;;;;;2.33;2.10;;;6.10;99.90;;;;;;483167;246;28843;-76
2020/12/04 10:01:00;;;;;;;2.97;2.17;;;6.10;99.90;;;;;;483141;246;28009;-77
2020/12/04 10:03:01;;;;;;;2.00;1.90;;;6.10;99.90;;;;;;483183;246;27476;-77
2020/12/04 10:05:03;;;;;;;2.50;2.30;;;6.10;99.90;;;;;;483224;246;27618;-78
2020/12/04 10:07:04;;;;;;;2.17;2.00;;;6.10;99.90;;;;;;483176;246;27448;-79
2020/12/04 10:09:05;;;;;;;3.60;3.30;;;6.00;99.90;;;;;;483247;246;28229;-78
2020/12/04 10:11:08;;;;;;;3.33;2.78;;;5.90;99.90;;;;;;483126;246;27475;-78
2020/12/04 10:13:09;;;;;;;2.62;2.42;;;6.00;99.90;;;;;;482954;246;27571;-77
2020/12/04 10:15:09;;;;;;;2.00;1.90;;;6.10;99.90;;;;;;483097;246;28141;-77
2020/12/04 10:17:10;;;;;;;2.40;2.20;;;6.10;99.90;;;;;;483219;246;27970;-77
2020/12/04 10:19:11;;;;;;;2.30;2.20;;;6.10;99.90;;;;;;483207;246;27452;-77
2020/12/04 10:21:13;;;;;;;1.98;1.85;;;6.10;99.90;;;;;;483121;246;27447;-77
2020/12/04 10:23:14;;;;;;;1.90;1.80;;;6.10;99.90;;;;;;483187;246;27615;-77
2020/12/04 10:25:15;;;;;;;1.75;1.65;;;6.10;99.90;;;;;;483151;246;27602;-76
2020/12/04 10:27:17;;;;;;;1.73;1.62;;;6.10;99.90;;;;;;483234;246;27412;-76
2020/12/04 10:29:18;;;;;;;1.75;1.65;;;6.10;99.90;;;;;;483227;246;28010;-77
2020/12/04 10:31:19;;;;;;;2.03;1.92;;;6.10;99.90;;;;;;483167;246;27934;-78
2020/12/04 10:33:20;;;;;;;2.95;1.75;;;6.10;99.90;;;;;;483159;246;27527;-77
2020/12/04 10:35:22;;;;;;;1.50;1.40;;;6.00;99.90;;;;;;483175;246;27463;-78
2020/12/04 10:37:23;;;;;;;1.70;1.60;;;6.00;99.90;;;;;;483185;246;27594;-77
2020/12/04 10:39:24;;;;;;;1.70;1.60;;;6.00;99.90;;;;;;483315;246;27471;-77